• Join FlightAware (Why Join?)
  • Login
  • US Flag 
12:59PM EDT


 

Airport Tracker/Info


-or-


 

Live Flight TrackerFlight Track Log ✈ AWE1940 ✈ 27-Apr-2013 ✈ KCLT - KALB

Flight Track Log - Related Links

Times and Time Zones

All times are in EDT time to prevent confusion due to time zone crossing. See the AWE1940 flight status page for this flight to view local times or setup timezone preferences in your user account.

Time Position Orientation Groundspeed Altitude Reporting Facility
EDT Latitude Longitude Course Direction KTS MPH feet Rate Location/Type
10:24PM 35.1886 -80.9358 72° East 162 186 1,800  Level Atlanta Center
10:25PM 35.1658 -80.9342 177° South 161 185 2,800 2,040 Climbing Atlanta Center
10:26PM 35.1394 -80.8894 126° Southeast 232 267 4,700 1,980 Climbing Atlanta Center
10:26PM 35.1456 -80.8739 64° Northeast 232 267 5,200 2,580 Climbing Atlanta Center
10:27PM 35.1234 -80.6177 29° Northeast  Level FlightAware Approximate
10:27PM 35.1808 -80.7861 64° Northeast 268 308 8,000  Level Atlanta Center
10:28PM 35.2235 -80.5499 30° Northeast  Level FlightAware Approximate
10:28PM 35.2158 -80.6933 65° Northeast 288 331 11,000  Level Atlanta Center
10:29PM 35.3167 -80.4753 90° East  Level FlightAware Approximate
10:30PM 35.3613 -80.3608 72° East  Level FlightAware Approximate
10:30PM 35.2892 -80.5056 64° Northeast 331 381 14,700  Level Washington Center
10:31PM 35.3361 -80.3839 65° Northeast 372 428 16,600 1,860 Climbing Washington Center
10:32PM 35.3867 -80.2644 63° Northeast 393 452 18,500 1,860 Climbing Washington Center
10:33PM 35.4336 -80.1322 66° East 404 465 20,500 1,920 Climbing Washington Center
10:34PM 35.4722 -79.9914 71° East 419 482 22,400 1,740 Climbing Washington Center
10:35PM 35.5067 -79.8481 74° East 425 489 24,000 1,560 Climbing Washington Center
10:36PM 35.5472 -79.6969 72° East 443 510 25,600 1,440 Climbing Washington Center
10:37PM 35.5881 -79.5433 72° East 469 540 27,000 1,380 Climbing Washington Center
10:38PM 35.6306 -79.3869 71° East 476 548 28,400 1,320 Climbing Washington Center
10:39PM 35.6914 -79.2414 63° Northeast 471 542 29,600 1,080 Climbing Washington Center
10:40PM 35.7525 -79.0881 64° Northeast 476 548 30,600 1,080 Climbing Washington Center
10:41PM 35.8153 -78.9372 63° Northeast 486 559 31,800 1,260 Climbing Washington Center
10:42PM 35.8778 -78.7811 64° Northeast 491 565 33,100 1,200 Climbing Washington Center
10:43PM 35.9464 -78.6350 60° Northeast 491 565 34,200 1,080 Climbing Washington Center
10:44PM 36.0208 -78.4864 58° Northeast 491 565 35,300 960 Climbing Washington Center
10:45PM 36.0892 -78.3397 60° Northeast 496 571 36,200 960 Climbing Washington Center
10:46PM 36.1614 -78.1906 59° Northeast 496 571 37,300 1,200 Climbing Washington Center
10:47PM 36.2289 -78.0483 59° Northeast 490 564 38,600 840 Climbing Washington Center
10:48PM 36.2986 -77.9089 58° Northeast 485 558 39,000 180 Climbing Washington Center
10:49PM 36.3636 -77.7689 60° Northeast 474 545 39,000  Level Washington Center
10:50PM 36.4158 -77.6569 60° Northeast 469 540 39,000  Level Washington Center
10:51PM 36.4850 -77.5036 61° Northeast 464 534 39,000  Level Washington Center
10:52PM 36.5497 -77.3631 60° Northeast 459 528 39,000  Level Washington Center
10:53PM 36.6164 -77.2222 59° Northeast 459 528 39,000  Level Washington Center
10:54PM 36.6831 -77.0839 59° Northeast 459 528 39,000  Level Washington Center
10:55PM 36.7658 -76.9661 49° Northeast 459 528 39,000  Level Washington Center
10:56PM 36.8753 -76.8642 37° Northeast 442 509 39,000  Level Washington Center
10:57PM 36.9764 -76.7747 35° Northeast 442 509 39,000  Level Washington Center
10:58PM 37.0733 -76.6853 36° Northeast 437 503 39,000  Level Washington Center
10:59PM 37.1719 -76.5953 36° Northeast 437 503 39,000  Level Washington Center
11:00PM 37.2686 -76.5078 36° Northeast 437 503 39,000  Level Washington Center
11:01PM 37.3672 -76.4203 35° Northeast 432 497 39,000  Level Washington Center
11:02PM 37.4617 -76.3322 36° Northeast 432 497 39,000 -180 Level Washington Center
11:03PM 37.5583 -76.2442 36° Northeast 432 497 38,700 -600 Descending Washington Center
11:04PM 37.6525 -76.1583 36° Northeast 426 490 37,800 -900 Descending Washington Center
11:05PM 37.7447 -76.0803 34° Northeast 426 490 37,000 -420 Descending Washington Center
11:06PM 37.8389 -75.9836 39° Northeast 431 496 37,000  Level Washington Center
11:07PM 37.9372 -75.8892 37° Northeast 436 502 37,000  Level Washington Center
11:08PM 38.0375 -75.8053 33° Northeast 436 502 37,000  Level Washington Center
11:09PM 38.1333 -75.7106 38° Northeast 436 502 37,000  Level Washington Center
11:10PM 38.2294 -75.6181 37° Northeast 430 495 37,000 -360 Level Washington Center
11:11PM 38.3275 -75.5308 35° Northeast 430 495 36,400 -1,080 Descending Washington Center
11:12PM 38.4358 -75.4778 21° North 425 489 34,900 -720 Descending Washington Center
11:13PM 38.5503 -75.4297 18° North 420 483 35,000  Climbing Washington Center
11:14PM 38.6608 -75.3603 26° Northeast 433 498 35,000  Level Washington Center
11:15PM 38.7689 -75.2881 28° Northeast 438 504 35,000  Level Washington Center
11:16PM 38.8772 -75.2131 28° Northeast 438 504 35,000  Level Washington Center
11:17PM 38.9811 -75.1431 28° Northeast 433 498 35,000  Level Washington Center
11:18PM 39.0831 -75.0728 28° Northeast 420 483 35,000  Level Washington Center
11:19PM 39.1847 -75.0025 28° Northeast 413 475 35,000  Level Washington Center
11:20PM 39.2867 -74.9319 28° Northeast 408 470 35,000  Level Washington Center
11:22PM 39.4583 -74.8150 28° Northeast 415 478 35,000  Level New York Center
11:23PM 39.5781 -74.7303 29° Northeast 404 465 35,000  Level New York Center
11:24PM 39.6656 -74.6678 29° Northeast 404 465 35,000  Level New York Center
11:25PM 39.7744 -74.5928 28° Northeast 404 465 35,000  Level New York Center
11:26PM 39.8769 -74.5200 29° Northeast 404 465 35,000  Level New York Center
11:27PM 39.9814 -74.4469 28° Northeast 410 472 35,000  Level New York Center
11:28PM 40.0856 -74.3739 28° Northeast 416 479 35,000  Level New York Center
11:29PM 40.1900 -74.2978 29° Northeast 416 479 35,000 -60 Level New York Center
11:30PM 40.2944 -74.2242 28° Northeast 427 491 34,900 -1,140 Descending New York Center
11:31PM 40.3989 -74.1450 30° Northeast 427 491 32,800 -2,460 Descending New York Center
11:33PM 40.6142 -73.9956 28° Northeast 426 490 27,700 -2,580 Descending Boston Center
11:34PM 40.7131 -73.9242 29° Northeast 420 483 25,200 -1,860 Descending Boston Center
11:35PM 40.8100 -73.8414 33° Northeast 415 478 24,000 -600 Descending Boston Center
11:36PM 40.8967 -73.7389 42° Northeast 415 478 24,000 -360 Level Boston Center
11:37PM 40.9850 -73.6500 37° Northeast 405 466 23,300 -540 Descending Boston Center
11:38PM 41.0933 -73.6575 357° North 373 429 23,000 -180 Descending Boston Center
11:39PM 41.1953 -73.6703 355° North 357 411 23,000  Level Boston Center
11:40PM 41.3017 -73.6753 358° North 362 417 23,000 -480 Level Boston Center
11:41PM 41.4036 -73.6856 356° North 367 422 22,100 -1,500 Descending Boston Center
11:42PM 41.5036 -73.6931 357° North 362 417 20,100 -1,800 Descending Boston Center
11:43PM 41.5889 -73.7058 354° North 354 407 18,500 -1,620 Descending Boston Center
11:44PM 41.6928 -73.7189 355° North 349 402 16,900 -1,560 Descending Boston Center
11:45PM 41.7803 -73.7264 356° North 349 402 15,400 -1,500 Descending Boston Center
11:45PM 41.8469 -73.7361 354° North 346 398 14,500 -1,620 Descending Boston Center
11:46PM 41.8803 -73.7367 359° North 336 387 13,800 -1,560 Descending Boston Center
11:46PM 41.9303 -73.7433 354° North 324 373 13,100 -1,440 Descending Boston Center
11:47PM 41.9594 -73.7467 355° North 327 376 12,400 -1,500 Descending Boston Center
11:47PM 42.0053 -73.7506 356° North 317 365 11,800 -1,440 Descending Boston Center
11:48PM 42.0572 -73.7572 355° North 322 371 11,000 -720 Descending Boston Center
11:48PM 42.0967 -73.7636 353° North 311 358 11,100 60 Climbing Boston Center
11:49PM 42.1425 -73.7644 359° North 311 358 11,100  Level Boston Center
11:49PM 42.1842 -73.7708 354° North 310 357 11,100 -240 Level Boston Center
11:50PM 42.2194 -73.7744 356° North 311 358 10,900 -600 Descending Boston Center
11:50PM 42.2675 -73.7811 354° North 307 353 10,500 -1,200 Descending Boston Center
11:51PM 42.3092 -73.7819 359° North 291 335 9,700 -1,920 Descending Boston Center
11:51PM 42.3425 -73.7856 355° North 262 302 8,600 -2,100 Descending Boston Center
11:52PM 42.3736 -73.7833 North 268 308 7,600 -2,100 Descending Boston Center
11:52PM 42.4175 -73.7872 356° North 265 305 6,500 -2,340 Descending Boston Center
11:53PM 42.4550 -73.7908 356° North 268 308 5,300 -2,100 Descending Boston Center
11:53PM 42.4881 -73.7972 352° North 263 303 4,400 -1,920 Descending Boston Center
11:54PM 42.5194 -73.7950 North 263 303 3,400 -2,040 Descending Boston Center